Archival Weather

Half Moon Bay

Half Moon Bay, California (KHAF)

Report from: Wednesday, December 6, 2023 1:35 PM PST
Current time: Saturday, February 24, 2024 7:50 AM PST

Current weather – Weather history – Daily summaries
Weather forecast

Present weatherMist
Temperature14.0°C (57.2°F)
Dew point14.0°C (57.2°F)
Winds 14 kts (7.2 m/s, 16.1 mph) South-Southeast (160°)
Wind gusts 24 kts (12.3 m/s, 27.6 mph)
Visibility3 mi. (4.8 km)
Clouds Few clouds 2,200 ft. (671 m)
Few clouds 3,300 ft. (1,006 m)
Scattered clouds 4,500 ft. (1,372 m)
Altimeter30.00 in.Hg (1016 mB)
Relative humidity100 %
Density altitude13 ft. (4 m)
Remarks Fully automated report
Automated weather observing station with precipitation discriminator
Flight conditions Marginal Visual Meteorological Conditions
Raw dataKHAF 062135Z AUTO 16014G24KT 3SM BR FEW022 FEW033 SCT045 14/14 A3000 RMK AO2
An error has occurred. This application may no longer respond until reloaded. Reload 🗙